createdAt,value
2022-09-21T00:01:29.638Z,8.70
2022-09-21T00:03:57.830Z,8.70
2022-09-21T00:06:25.229Z,8.70
2022-09-21T00:08:52.380Z,8.70
2022-09-21T00:11:20.666Z,8.80
2022-09-21T00:13:47.731Z,8.80
2022-09-21T00:16:15.581Z,8.80
2022-09-21T00:18:42.300Z,8.70
2022-09-21T00:21:13.191Z,8.70
2022-09-21T00:23:40.469Z,8.70
2022-09-21T00:26:14.931Z,8.70
2022-09-21T00:28:41.655Z,8.70
2022-09-21T00:31:13.300Z,8.70
2022-09-21T00:33:41.791Z,8.70
2022-09-21T00:36:09.943Z,8.70
2022-09-21T00:38:36.820Z,8.70
2022-09-21T00:41:04.015Z,8.80
2022-09-21T00:43:33.534Z,8.70
2022-09-21T00:46:03.023Z,8.70
2022-09-21T00:48:31.023Z,8.80
2022-09-21T00:51:01.943Z,8.80
2022-09-21T00:53:28.719Z,8.70
2022-09-21T00:55:56.976Z,8.70
2022-09-21T00:58:29.700Z,8.70
2022-09-21T01:25:37.014Z,8.80
2022-09-21T01:28:07.449Z,8.70
2022-09-21T01:30:35.947Z,8.70
2022-09-21T01:33:22.897Z,8.80
2022-09-21T01:35:52.949Z,8.70
2022-09-21T01:38:21.889Z,8.70
2022-09-21T01:40:53.815Z,8.70
2022-09-21T01:43:25.435Z,8.60
2022-09-21T01:45:54.007Z,8.60
2022-09-21T01:48:22.342Z,8.60
2022-09-21T01:50:53.884Z,8.70
2022-09-21T01:53:39.170Z,8.60
2022-09-21T01:56:18.015Z,8.60
2022-09-21T01:58:50.287Z,8.60
2022-09-21T02:01:19.727Z,8.60
2022-09-21T02:03:51.948Z,8.60
2022-09-21T02:06:19.229Z,8.60
2022-09-21T02:08:46.438Z,8.60
2022-09-21T02:11:13.387Z,8.60
2022-09-21T02:13:43.134Z,8.60
2022-09-21T02:16:12.846Z,8.60
2022-09-21T02:18:58.227Z,8.60
2022-09-21T02:21:33.334Z,8.50
2022-09-21T02:24:08.564Z,8.40
2022-09-21T02:26:42.369Z,8.30
2022-09-21T02:29:18.527Z,8.20
2022-09-21T02:31:52.644Z,8.20
2022-09-21T02:34:28.664Z,8.20
2022-09-21T02:36:58.311Z,8.20
2022-09-21T02:39:30.177Z,8.10
2022-09-21T02:41:56.911Z,8.10
2022-09-21T02:44:36.186Z,8.10
2022-09-21T02:47:21.403Z,8.10
2022-09-21T02:49:56.986Z,8.00
2022-09-21T02:52:25.148Z,7.90
2022-09-21T02:54:53.773Z,7.80
2022-09-21T02:57:21.795Z,7.70
2022-09-21T02:59:48.765Z,7.70
2022-09-21T03:02:15.569Z,7.70
2022-09-21T03:04:43.256Z,7.60
2022-09-21T03:07:09.895Z,7.50
2022-09-21T03:09:36.533Z,7.40
2022-09-21T03:12:03.343Z,7.40
2022-09-21T03:14:33.119Z,7.40
2022-09-21T03:17:00.659Z,7.30
2022-09-21T03:19:28.437Z,7.40
2022-09-21T03:21:55.060Z,7.40
2022-09-21T03:24:40.330Z,7.40
2022-09-21T03:27:08.874Z,7.40
2022-09-21T03:29:35.548Z,7.40
2022-09-21T03:32:02.388Z,7.30
2022-09-21T03:34:29.062Z,7.10
2022-09-21T03:36:55.683Z,7.20
2022-09-21T03:39:22.319Z,7.20
2022-09-21T03:41:48.978Z,7.20
2022-09-21T03:44:17.867Z,7.20
2022-09-21T03:46:44.648Z,7.10
2022-09-21T03:49:11.316Z,7.10
2022-09-21T03:51:39.094Z,6.90
2022-09-21T03:54:05.741Z,6.80
2022-09-21T03:56:32.465Z,6.80
2022-09-21T03:58:59.098Z,6.80
2022-09-21T04:01:26.108Z,6.90
2022-09-21T04:03:52.990Z,6.80
2022-09-21T04:06:19.633Z,6.90
2022-09-21T04:08:46.509Z,6.80
2022-09-21T04:11:14.035Z,6.90
2022-09-21T04:13:42.544Z,6.80
2022-09-21T04:16:09.930Z,6.70
2022-09-21T04:18:38.020Z,6.70
2022-09-21T04:21:06.170Z,6.70
2022-09-21T04:23:32.890Z,6.60
2022-09-21T04:25:59.979Z,6.50
2022-09-21T04:28:26.723Z,6.40
2022-09-21T04:30:54.363Z,6.40
2022-09-21T04:33:24.074Z,6.40
2022-09-21T04:35:57.011Z,6.30
2022-09-21T04:38:23.680Z,6.30
2022-09-21T04:40:57.246Z,6.40
2022-09-21T04:43:23.926Z,6.30
2022-09-21T04:45:50.616Z,6.20
2022-09-21T04:48:18.079Z,6.10
2022-09-21T04:50:48.523Z,6.10
2022-09-21T04:53:15.363Z,6.20
2022-09-21T04:55:42.002Z,6.30
2022-09-21T04:58:08.667Z,6.30
2022-09-21T05:00:35.270Z,6.30
2022-09-21T05:03:01.915Z,6.20
2022-09-21T05:05:28.512Z,6.10
2022-09-21T05:07:55.121Z,6.00
2022-09-21T05:10:21.835Z,6.10
2022-09-21T05:12:48.485Z,6.30
2022-09-21T05:15:15.143Z,6.30
2022-09-21T05:17:41.816Z,6.30
2022-09-21T05:20:08.828Z,6.20
2022-09-21T05:22:35.636Z,6.10
2022-09-21T05:25:02.272Z,6.10
2022-09-21T05:27:28.894Z,6.00
2022-09-21T05:29:55.741Z,6.00
2022-09-21T05:32:22.358Z,6.00
2022-09-21T05:34:48.974Z,6.00
2022-09-21T05:37:21.694Z,6.10
2022-09-21T05:39:48.582Z,6.10
2022-09-21T05:42:15.335Z,6.20
2022-09-21T05:44:42.182Z,6.20
2022-09-21T05:47:22.068Z,6.30
2022-09-21T05:49:57.858Z,6.30
2022-09-21T05:52:36.900Z,6.20
2022-09-21T05:55:03.611Z,6.20
2022-09-21T05:57:36.016Z,6.30
2022-09-21T06:00:12.582Z,6.30
2022-09-21T06:02:57.347Z,6.40
2022-09-21T06:05:24.110Z,6.50
2022-09-21T06:07:50.738Z,6.60
2022-09-21T06:10:17.764Z,6.70
2022-09-21T06:12:44.477Z,6.70
2022-09-21T06:15:12.338Z,6.70
2022-09-21T06:17:39.228Z,6.80
2022-09-21T06:20:07.552Z,6.80
2022-09-21T06:22:34.596Z,6.80
2022-09-21T06:27:51.886Z,7.00
2022-09-21T06:30:18.526Z,7.10
2022-09-21T06:32:45.127Z,7.10
2022-09-21T06:35:11.728Z,7.20
2022-09-21T06:37:42.194Z,7.30
2022-09-21T06:40:09.214Z,7.40
2022-09-21T06:42:35.852Z,7.50
2022-09-21T06:45:03.510Z,7.60
2022-09-21T06:47:30.237Z,7.70
2022-09-21T06:49:57.094Z,7.80
2022-09-21T06:52:23.733Z,7.80
2022-09-21T06:54:50.369Z,7.90
2022-09-21T06:57:16.971Z,8.00
2022-09-21T06:59:43.976Z,8.10
2022-09-21T07:02:12.517Z,8.30
2022-09-21T07:04:39.177Z,8.30
2022-09-21T07:07:05.842Z,8.40
2022-09-21T07:12:19.148Z,8.50
2022-09-21T07:14:46.314Z,8.60
2022-09-21T07:17:15.770Z,8.60
2022-09-21T07:19:42.562Z,8.80
2022-09-21T07:22:09.289Z,8.80
2022-09-21T07:24:35.890Z,8.90
2022-09-21T07:27:02.539Z,9.00
2022-09-21T07:29:29.143Z,9.00
2022-09-21T07:31:55.994Z,9.10
2022-09-21T07:34:22.685Z,9.10
2022-09-21T07:36:49.311Z,9.20
2022-09-21T07:39:15.910Z,9.20
2022-09-21T07:41:42.616Z,9.30
2022-09-21T07:44:09.236Z,9.40
2022-09-21T07:46:37.081Z,9.40
2022-09-21T07:49:05.214Z,9.40
2022-09-21T07:51:32.242Z,9.50
2022-09-21T07:53:59.059Z,9.60
2022-09-21T07:56:25.918Z,9.70
2022-09-21T07:59:07.919Z,9.70
2022-09-21T08:01:35.517Z,9.70
2022-09-21T08:04:03.085Z,9.70
2022-09-21T08:06:32.161Z,9.70
2022-09-21T08:08:59.758Z,9.80
2022-09-21T08:11:27.583Z,9.90
2022-09-21T08:13:58.909Z,9.90
2022-09-21T08:16:25.836Z,9.90
2022-09-21T08:18:52.612Z,9.80
2022-09-21T08:21:20.374Z,9.80
2022-09-21T08:23:48.625Z,9.80
2022-09-21T08:26:18.711Z,9.80
2022-09-21T08:28:49.014Z,9.90
2022-09-21T08:31:17.143Z,9.90
2022-09-21T08:33:43.982Z,10.00
2022-09-21T08:36:10.863Z,10.10
2022-09-21T08:38:38.512Z,10.10
2022-09-21T08:41:17.190Z,10.20
2022-09-21T08:43:44.895Z,10.20
2022-09-21T08:46:14.016Z,10.30
2022-09-21T08:48:47.486Z,10.30
2022-09-21T08:51:22.945Z,10.40
2022-09-21T08:53:52.301Z,10.50
2022-09-21T08:56:20.453Z,10.60
2022-09-21T08:58:47.092Z,10.60
2022-09-21T09:01:19.939Z,10.60
2022-09-21T09:03:55.607Z,10.70
2022-09-21T09:06:27.007Z,10.70
2022-09-21T09:09:04.630Z,10.70
2022-09-21T09:11:46.185Z,10.80
2022-09-21T09:14:31.785Z,10.80
2022-09-21T09:17:17.206Z,10.70
2022-09-21T09:19:47.403Z,10.80
2022-09-21T09:22:17.938Z,10.90
2022-09-21T09:24:49.573Z,10.90
2022-09-21T09:27:36.925Z,10.90
2022-09-21T09:30:05.567Z,11.00
2022-09-21T09:32:32.179Z,11.00
2022-09-21T09:35:13.452Z,11.20
2022-09-21T09:37:42.266Z,11.20
2022-09-21T09:40:12.302Z,11.20
2022-09-21T09:43:00.149Z,11.30
2022-09-21T09:45:29.259Z,11.40
2022-09-21T09:47:59.189Z,11.60
2022-09-21T09:50:28.191Z,11.70
2022-09-21T09:53:00.102Z,11.80
2022-09-21T09:55:30.366Z,12.00
2022-09-21T09:57:57.081Z,12.10
2022-09-21T10:00:23.730Z,12.20
2022-09-21T10:02:52.238Z,12.20
2022-09-21T10:05:24.225Z,12.10
2022-09-21T10:07:51.409Z,12.00
2022-09-21T10:10:24.177Z,12.10
2022-09-21T10:12:52.528Z,12.20
2022-09-21T10:15:20.423Z,12.20
2022-09-21T10:17:47.367Z,12.10
2022-09-21T10:20:16.003Z,12.20
2022-09-21T10:22:55.827Z,12.20
2022-09-21T10:25:22.705Z,12.20
2022-09-21T10:27:50.794Z,12.40
2022-09-21T10:30:32.462Z,12.40
2022-09-21T10:32:59.423Z,12.60
2022-09-21T10:35:27.073Z,12.80
2022-09-21T10:38:10.474Z,12.80
2022-09-21T10:40:38.108Z,12.80
2022-09-21T10:43:05.247Z,12.70
2022-09-21T10:45:34.898Z,12.60
2022-09-21T10:48:08.906Z,12.50
2022-09-21T10:50:37.063Z,12.60
2022-09-21T10:53:09.755Z,12.60
2022-09-21T10:55:58.472Z,12.80
2022-09-21T10:58:31.715Z,12.80
2022-09-21T11:01:10.510Z,12.90
2022-09-21T11:03:45.498Z,12.90
2022-09-21T11:06:27.631Z,12.90
2022-09-21T11:08:57.243Z,12.80
2022-09-21T11:11:23.818Z,12.80
2022-09-21T11:13:56.591Z,12.90
2022-09-21T11:16:28.730Z,12.90
2022-09-21T11:19:17.363Z,12.80
2022-09-21T11:22:00.873Z,12.70
2022-09-21T11:24:40.684Z,12.70
2022-09-21T11:27:36.538Z,12.60
2022-09-21T11:30:09.021Z,12.60
2022-09-21T11:32:35.821Z,12.80
2022-09-21T11:35:20.822Z,13.00
2022-09-21T11:37:47.463Z,13.20
2022-09-21T11:40:17.103Z,13.40
2022-09-21T11:42:58.358Z,13.60
2022-09-21T11:45:47.154Z,13.70
2022-09-21T11:48:23.888Z,13.70
2022-09-21T11:51:03.720Z,13.50
2022-09-21T11:53:49.897Z,13.30
2022-09-21T11:56:43.485Z,13.10
2022-09-21T11:59:29.260Z,13.00
2022-09-21T12:02:18.416Z,12.70
2022-09-21T12:04:50.219Z,12.60
2022-09-21T12:07:30.466Z,12.60
2022-09-21T12:10:07.449Z,12.60
2022-09-21T12:12:46.650Z,12.70
2022-09-21T12:15:19.625Z,13.00
2022-09-21T12:18:05.466Z,13.30
2022-09-21T12:20:42.338Z,13.60
2022-09-21T12:23:14.638Z,14.10
2022-09-21T12:25:43.100Z,14.20
2022-09-21T12:28:14.394Z,14.30
2022-09-21T12:30:43.824Z,14.30
2022-09-21T12:33:16.629Z,14.20
2022-09-21T12:35:45.137Z,14.10
2022-09-21T12:38:16.476Z,13.90
2022-09-21T12:40:47.542Z,13.70
2022-09-21T12:43:28.405Z,13.70
2022-09-21T12:46:04.399Z,13.60
2022-09-21T12:48:32.660Z,13.50
2022-09-21T12:51:05.056Z,13.50
2022-09-21T12:53:34.695Z,13.40
2022-09-21T12:56:09.800Z,13.40
2022-09-21T12:58:45.936Z,13.50
2022-09-21T13:01:32.437Z,13.50
2022-09-21T13:04:17.977Z,13.60
2022-09-21T13:07:07.654Z,13.50
2022-09-21T13:09:34.849Z,13.20
2022-09-21T13:12:06.527Z,13.10
2022-09-21T13:14:36.326Z,13.10
2022-09-21T13:17:05.079Z,13.10
2022-09-21T13:19:33.778Z,13.30
2022-09-21T13:22:20.033Z,13.40
2022-09-21T13:24:58.326Z,13.60
2022-09-21T13:27:44.988Z,13.90
2022-09-21T13:30:30.140Z,14.00
2022-09-21T13:32:57.486Z,14.10
2022-09-21T13:35:44.009Z,14.10
2022-09-21T13:38:26.183Z,14.10
2022-09-21T13:41:03.646Z,14.00
2022-09-21T13:43:47.010Z,13.90
2022-09-21T13:46:43.470Z,13.80
2022-09-21T13:49:10.645Z,13.50
2022-09-21T13:51:51.131Z,13.50
2022-09-21T13:54:18.009Z,13.40
2022-09-21T13:56:44.801Z,13.40
2022-09-21T13:59:22.550Z,13.40
2022-09-21T14:01:49.554Z,13.30
2022-09-21T14:04:20.184Z,13.30
2022-09-21T14:06:48.407Z,13.20
2022-09-21T14:09:29.244Z,13.20
2022-09-21T14:11:58.149Z,13.00
2022-09-21T14:14:37.273Z,12.90
2022-09-21T14:17:25.549Z,12.80
2022-09-21T14:19:56.041Z,12.90
2022-09-21T14:22:26.703Z,12.90
2022-09-21T14:25:12.170Z,12.90
2022-09-21T14:27:41.200Z,13.00
2022-09-21T14:30:29.407Z,13.00
2022-09-21T14:33:06.947Z,13.10
2022-09-21T14:35:37.244Z,13.30
2022-09-21T14:38:07.990Z,13.40
2022-09-21T14:40:39.228Z,13.50
2022-09-21T14:43:12.395Z,13.50
2022-09-21T14:45:58.793Z,13.60
2022-09-21T14:48:34.593Z,13.80
2022-09-21T14:51:03.450Z,14.00
2022-09-21T14:53:48.761Z,13.90
2022-09-21T14:56:22.487Z,14.00
2022-09-21T14:59:03.120Z,14.10
2022-09-21T15:01:36.054Z,14.20
2022-09-21T15:04:02.710Z,14.20
2022-09-21T15:07:00.983Z,14.20
2022-09-21T15:09:49.230Z,14.20
2022-09-21T15:12:19.305Z,14.10
2022-09-21T15:15:01.464Z,14.10
2022-09-21T15:17:30.099Z,14.00
2022-09-21T15:19:58.222Z,14.00
2022-09-21T15:22:25.063Z,14.00
2022-09-21T15:24:53.166Z,13.90
2022-09-21T15:27:21.347Z,13.70
2022-09-21T15:29:50.045Z,13.60
2022-09-21T15:32:46.667Z,13.60
2022-09-21T15:35:19.419Z,13.50
2022-09-21T15:37:46.694Z,13.40
2022-09-21T15:40:16.495Z,13.30
2022-09-21T15:43:02.055Z,13.20
2022-09-21T15:45:30.297Z,13.20
2022-09-21T15:47:58.453Z,13.10
2022-09-21T15:50:26.284Z,13.10
2022-09-21T15:52:57.075Z,13.00
2022-09-21T15:55:23.953Z,12.90
2022-09-21T15:57:58.166Z,12.90
2022-09-21T16:00:26.134Z,12.90
2022-09-21T16:03:04.819Z,12.80
2022-09-21T16:05:51.570Z,12.80
2022-09-21T16:08:30.114Z,12.80
2022-09-21T16:11:12.137Z,12.80
2022-09-21T16:13:57.639Z,12.80
2022-09-21T16:16:24.535Z,12.90
2022-09-21T16:18:52.289Z,12.90
2022-09-21T16:21:22.015Z,12.90
2022-09-21T16:23:53.030Z,13.00
2022-09-21T16:26:21.648Z,13.00
2022-09-21T16:28:48.632Z,13.00
2022-09-21T16:31:22.638Z,12.90
2022-09-21T16:33:49.443Z,13.00
2022-09-21T16:36:37.984Z,12.90
2022-09-21T16:39:08.636Z,12.80
2022-09-21T16:41:40.778Z,12.80
2022-09-21T16:44:19.875Z,12.70
2022-09-21T16:46:51.451Z,12.70
2022-09-21T16:49:19.993Z,12.60
2022-09-21T16:51:49.724Z,12.60
2022-09-21T16:54:17.541Z,12.50
2022-09-21T16:56:44.293Z,12.50
2022-09-21T16:59:21.994Z,12.40
2022-09-21T17:01:54.116Z,12.40
2022-09-21T17:04:24.052Z,12.30
2022-09-21T17:06:52.703Z,12.30
2022-09-21T17:09:38.506Z,12.30
2022-09-21T17:12:07.798Z,12.20
2022-09-21T17:14:35.953Z,12.20
2022-09-21T17:17:04.402Z,12.20
2022-09-21T17:19:32.113Z,12.10
2022-09-21T17:21:59.701Z,12.00
2022-09-21T17:24:49.379Z,12.00
2022-09-21T17:27:19.724Z,11.90
2022-09-21T17:29:49.990Z,11.70
2022-09-21T17:32:20.523Z,11.60
2022-09-21T17:34:53.306Z,11.60
2022-09-21T17:37:20.218Z,11.40
2022-09-21T17:39:47.364Z,11.30
2022-09-21T17:42:18.973Z,11.20
2022-09-21T17:45:06.944Z,11.20
2022-09-21T17:47:34.889Z,11.10
2022-09-21T17:50:10.677Z,11.00
2022-09-21T17:52:56.063Z,10.90
2022-09-21T17:55:23.061Z,10.80
2022-09-21T17:58:05.842Z,10.60
2022-09-21T18:00:50.806Z,10.50
2022-09-21T18:03:25.262Z,10.50
2022-09-21T18:05:59.500Z,10.40
2022-09-21T18:08:30.720Z,10.30
2022-09-21T18:10:57.695Z,10.20
2022-09-21T18:13:31.834Z,10.10
2022-09-21T18:16:03.556Z,10.10
2022-09-21T18:18:33.078Z,10.00
2022-09-21T18:21:11.802Z,10.00
2022-09-21T18:23:57.424Z,10.00
2022-09-21T18:26:25.009Z,9.90
2022-09-21T18:28:57.029Z,9.90
2022-09-21T18:31:42.885Z,9.80
2022-09-21T18:34:15.560Z,9.80
2022-09-21T18:37:01.195Z,9.80
2022-09-21T18:39:45.459Z,9.80
2022-09-21T18:42:21.411Z,9.70
2022-09-21T18:44:50.718Z,9.70
2022-09-21T18:47:22.137Z,9.60
2022-09-21T18:50:02.511Z,9.50
2022-09-21T18:52:29.161Z,9.40
2022-09-21T18:54:56.008Z,9.40
2022-09-21T18:57:23.466Z,9.40
2022-09-21T18:59:50.350Z,9.30
2022-09-21T19:02:19.046Z,9.20
2022-09-21T19:04:46.255Z,9.20
2022-09-21T19:07:17.976Z,9.20
2022-09-21T19:09:55.812Z,9.10
2022-09-21T19:12:41.584Z,9.10
2022-09-21T19:15:17.614Z,9.10
2022-09-21T19:17:56.182Z,9.10
2022-09-21T19:20:44.364Z,9.10
2022-09-21T19:23:11.743Z,9.00
2022-09-21T19:25:38.644Z,8.90
2022-09-21T19:28:16.629Z,8.90
2022-09-21T19:30:43.656Z,8.90
2022-09-21T19:33:48.809Z,8.80
2022-09-21T19:36:15.965Z,8.70
2022-09-21T19:38:43.077Z,8.70
2022-09-21T19:41:24.693Z,8.70
2022-09-21T19:43:58.165Z,8.80
2022-09-21T19:46:33.494Z,8.80
2022-09-21T19:49:05.246Z,8.70
2022-09-21T19:51:45.789Z,8.70
2022-09-21T19:54:35.763Z,8.70
2022-09-21T19:57:26.445Z,8.70
2022-09-21T19:59:53.267Z,8.60
2022-09-21T20:02:28.896Z,8.50
2022-09-21T20:04:56.766Z,8.50
2022-09-21T20:07:35.794Z,8.40
2022-09-21T20:10:07.706Z,8.40
2022-09-21T20:12:37.561Z,8.40
2022-09-21T20:15:15.850Z,8.30
2022-09-21T20:17:54.683Z,8.20
2022-09-21T20:20:26.929Z,8.20
2022-09-21T20:22:54.106Z,8.30
2022-09-21T20:25:26.417Z,8.20
2022-09-21T20:27:55.357Z,8.20
2022-09-21T20:30:23.986Z,8.10
2022-09-21T20:32:53.445Z,8.00
2022-09-21T20:35:24.553Z,8.00
2022-09-21T20:37:51.862Z,8.00
2022-09-21T20:40:20.315Z,8.10
2022-09-21T20:42:47.010Z,8.10
2022-09-21T20:45:14.087Z,8.10
2022-09-21T20:47:40.828Z,8.10
2022-09-21T20:50:11.964Z,8.10
2022-09-21T20:52:40.239Z,8.10
2022-09-21T20:55:10.970Z,8.10
2022-09-21T20:57:37.612Z,8.10
2022-09-21T21:00:11.580Z,8.10
2022-09-21T21:02:38.436Z,8.10
2022-09-21T21:05:05.809Z,8.00
2022-09-21T21:07:32.493Z,7.90
2022-09-21T21:09:59.557Z,7.80
2022-09-21T21:12:26.320Z,7.70
2022-09-21T21:14:53.200Z,7.70
2022-09-21T21:17:20.427Z,7.60
2022-09-21T21:19:47.114Z,7.60
2022-09-21T21:22:13.781Z,7.50
2022-09-21T21:24:41.155Z,7.60
2022-09-21T21:27:11.562Z,7.50
2022-09-21T21:29:38.332Z,7.40
2022-09-21T21:32:05.533Z,7.40
2022-09-21T21:34:32.560Z,7.40
2022-09-21T21:36:59.275Z,7.40
2022-09-21T21:39:25.947Z,7.50
2022-09-21T21:41:52.585Z,7.60
2022-09-21T21:44:19.231Z,7.50
2022-09-21T21:46:45.838Z,7.60
2022-09-21T21:49:13.624Z,7.40
2022-09-21T21:51:40.596Z,7.30
2022-09-21T21:54:07.426Z,7.20
2022-09-21T21:56:34.117Z,7.10
2022-09-21T21:59:00.788Z,7.10
2022-09-21T22:01:29.469Z,7.10
2022-09-21T22:03:57.587Z,7.10
2022-09-21T22:06:24.687Z,7.20
2022-09-21T22:08:52.026Z,7.20
2022-09-21T22:11:20.055Z,7.10
2022-09-21T22:13:46.789Z,7.00
2022-09-21T22:16:15.181Z,7.00
2022-09-21T22:18:42.154Z,7.00
2022-09-21T22:21:10.873Z,7.00
2022-09-21T22:23:37.910Z,7.10
2022-09-21T22:26:16.110Z,7.10
2022-09-21T22:28:43.938Z,7.10
2022-09-21T22:31:12.284Z,7.10
2022-09-21T22:33:39.072Z,7.10
2022-09-21T22:36:08.832Z,7.10
2022-09-21T22:38:40.434Z,7.10
2022-09-21T22:41:10.245Z,7.00
2022-09-21T22:43:37.166Z,7.00
2022-09-21T22:46:04.317Z,6.90
2022-09-21T22:48:31.132Z,6.80
2022-09-21T22:50:57.747Z,6.80
2022-09-21T22:53:24.454Z,6.90
2022-09-21T22:56:09.894Z,6.90
2022-09-21T22:58:37.668Z,6.90
2022-09-21T23:01:09.637Z,6.90
2022-09-21T23:03:37.115Z,6.90
2022-09-21T23:06:04.425Z,6.80
2022-09-21T23:08:31.625Z,6.70
2022-09-21T23:11:05.587Z,6.70
2022-09-21T23:13:32.217Z,6.70
2022-09-21T23:16:06.010Z,6.60
2022-09-21T23:18:32.931Z,6.50
2022-09-21T23:21:00.555Z,6.60
2022-09-21T23:23:28.226Z,6.60
2022-09-21T23:26:08.563Z,6.60
2022-09-21T23:28:35.955Z,6.60
2022-09-21T23:31:04.351Z,6.70
2022-09-21T23:33:32.268Z,6.70
2022-09-21T23:35:59.678Z,6.70
2022-09-21T23:38:26.892Z,6.80
2022-09-21T23:40:53.608Z,6.80
2022-09-21T23:43:20.397Z,6.80
2022-09-21T23:45:47.200Z,6.80
2022-09-21T23:48:13.849Z,6.90
2022-09-21T23:50:40.483Z,6.80
2022-09-21T23:53:07.069Z,6.80
2022-09-21T23:55:34.061Z,6.70
2022-09-21T23:58:00.668Z,6.60
